Terminal Aerodrome Forecast
Issued by NWS Lake Charles, LA

Home | Current Version | Previous Version | Text Only | Print | Product List | Glossary On
Versions: 1 2 3 4 5 6 7 8 9 10 11 12 13 14 15 16 17 18 19 20 21 22 23 24 25 26 27 28 29 30
000
FTUS44 KLCH 210424 AAA
TAFBPT
TAF AMD
KBPT 210424Z 2104/2124 VRB04KT 6SM BR OVC015
     FM210700 VRB03KT 3SM BR OVC007
     FM210900 VRB03KT 1SM BR OVC003
     FM211500 VRB05KT 5SM BR BKN025
     FM211700 29008KT P6SM SCT250=

USA.gov is the U.S. government's official web portal to all federal, state and local government web resources and services.